Time;durP1;ratioP1;P1;durP2;ratioP2;P2;SDS_P1;SDS_P2;PMS_P1;PMS_P2;Temp;Humidity;BMP_temperature;BMP_pressure;BME280_temperature;BME280_humidity;BME280_pressure;Samples;Min_cycle;Max_cycle;Signal;HPM_P1;HPM_P2
2022/01/18 00:01:25;;;;;;;1.30;1.20;;;20.80;57.40;;;;;;5052612;28;20017;-73
2022/01/18 00:03:51;;;;;;;1.27;1.13;;;20.80;57.40;;;;;;5034946;28;20043;-73
2022/01/18 00:06:17;;;;;;;1.27;1.13;;;20.90;57.40;;;;;;5051291;28;20488;-73
2022/01/18 00:08:42;;;;;;;1.23;1.13;;;20.80;57.40;;;;;;5052058;28;20476;-73
2022/01/18 00:11:08;;;;;;;2.03;1.20;;;20.90;57.50;;;;;;5051985;28;20029;-73
2022/01/18 00:18:33;;;;;;;1.42;1.30;;;20.80;57.40;;;;;;5031371;28;20519;-73
2022/01/18 00:23:35;;;;;;;1.80;1.30;;;20.90;58.50;;;;;;5035511;28;20036;-73
2022/01/18 00:26:01;;;;;;;1.27;1.20;;;20.80;57.50;;;;;;5034596;28;20017;-73
2022/01/18 00:28:28;;;;;;;1.70;1.40;;;20.90;57.50;;;;;;5052164;28;20418;-73
2022/01/18 00:33:39;;;;;;;1.33;1.23;;;20.90;57.50;;;;;;5051112;28;20562;-73
2022/01/18 00:36:07;;;;;;;1.40;1.30;;;20.90;57.50;;;;;;5050514;28;20036;-74
2022/01/18 00:38:47;;;;;;;1.42;1.33;;;20.90;57.60;;;;;;5050952;28;20041;-74
2022/01/18 00:41:13;;;;;;;1.27;1.17;;;20.90;57.50;;;;;;5051047;28;20032;-74
2022/01/18 00:43:39;;;;;;;1.30;1.17;;;20.90;57.50;;;;;;5050905;28;20031;-74
2022/01/18 00:46:05;;;;;;;1.70;1.40;;;20.90;57.50;;;;;;5034418;28;20021;-74
2022/01/18 00:48:35;;;;;;;1.20;1.10;;;20.90;57.50;;;;;;5052197;28;20029;-74
2022/01/18 00:51:03;;;;;;;2.25;1.33;;;20.90;57.50;;;;;;5051749;28;20052;-74
2022/01/18 00:53:32;;;;;;;1.98;1.40;;;20.90;57.50;;;;;;5018064;28;20399;-74
2022/01/18 00:58:35;;;;;;;1.65;1.55;;;20.90;57.50;;;;;;5051223;28;20029;-74
2022/01/18 01:01:01;;;;;;;1.52;1.40;;;20.90;57.60;;;;;;5050677;28;20108;-74
2022/01/18 01:03:26;;;;;;;1.38;1.27;;;20.90;57.50;;;;;;5051636;28;20476;-74
2022/01/18 01:05:52;;;;;;;1.60;1.50;;;20.90;57.50;;;;;;5050452;28;20017;-73
2022/01/18 01:08:18;;;;;;;1.35;1.25;;;20.90;57.50;;;;;;5034130;28;20127;-74
2022/01/18 01:10:43;;;;;;;1.58;1.48;;;20.90;57.50;;;;;;5034122;28;20510;-74
2022/01/18 01:13:10;;;;;;;1.30;1.20;;;20.90;57.50;;;;;;5045877;28;20083;-74
2022/01/18 01:15:52;;;;;;;1.70;1.60;;;20.90;57.50;;;;;;5030716;28;20028;-74
2022/01/18 01:18:50;;;;;;;1.83;1.40;;;20.90;57.50;;;;;;5031726;28;20060;-74
2022/01/18 01:34:58;;;;;;;1.42;1.33;;;20.80;57.60;;;;;;5055046;28;20502;-74
2022/01/18 01:45:27;;;;;;;2.08;1.65;;;20.90;57.60;;;;;;5054068;28;20029;-74
2022/01/18 01:47:56;;;;;;;2.22;1.67;;;20.90;57.60;;;;;;5053962;28;20024;-74
2022/01/18 01:50:23;;;;;;;1.85;1.60;;;20.90;57.60;;;;;;5053575;28;20020;-74
2022/01/18 01:52:50;;;;;;;1.70;1.60;;;20.90;57.60;;;;;;5037473;28;20017;-74
2022/01/18 01:55:17;;;;;;;2.00;1.50;;;20.90;57.60;;;;;;5037193;28;20029;-73
2022/01/18 01:57:42;;;;;;;2.00;1.60;;;20.90;57.60;;;;;;5055063;28;20016;-74
2022/01/18 02:00:13;;;;;;;1.70;1.60;;;20.90;57.60;;;;;;5054796;28;20531;-73
2022/01/18 02:02:38;;;;;;;1.80;1.42;;;20.90;57.60;;;;;;5053653;28;20032;-74
2022/01/18 02:05:04;;;;;;;1.58;1.48;;;20.90;57.60;;;;;;5053204;28;20411;-74
2022/01/18 02:07:30;;;;;;;1.60;1.50;;;20.90;57.60;;;;;;5036739;28;20021;-74
2022/01/18 02:09:57;;;;;;;1.80;1.63;;;20.90;57.60;;;;;;5054761;28;20036;-74
2022/01/18 02:12:23;;;;;;;1.88;1.48;;;20.90;57.60;;;;;;5054576;28;20021;-74
2022/01/18 02:14:55;;;;;;;2.42;1.50;;;20.90;57.60;;;;;;5017679;28;20022;-74
2022/01/18 02:22:50;;;;;;;3.03;1.83;;;20.90;57.60;;;;;;5053531;28;20152;-73
2022/01/18 02:25:16;;;;;;;5.07;1.73;;;20.90;57.60;;;;;;5052991;28;20047;-73
2022/01/18 02:27:41;;;;;;;1.65;1.55;;;20.90;58.60;;;;;;5036390;28;20059;-73
2022/01/18 02:30:07;;;;;;;2.00;1.65;;;20.90;57.60;;;;;;5054192;28;20028;-73
2022/01/18 02:32:33;;;;;;;1.70;1.60;;;20.90;57.60;;;;;;5053774;28;20103;-73
2022/01/18 02:34:59;;;;;;;1.52;1.42;;;20.90;57.60;;;;;;5052715;28;20134;-73
2022/01/18 02:37:24;;;;;;;1.48;1.38;;;20.90;57.60;;;;;;5052896;28;20048;-73
2022/01/18 02:39:50;;;;;;;1.73;1.63;;;20.90;57.60;;;;;;5054313;28;20368;-73
2022/01/18 02:42:23;;;;;;;1.83;1.60;;;20.90;57.50;;;;;;5053810;28;20036;-73
2022/01/18 02:44:50;;;;;;;2.90;1.83;;;20.90;57.60;;;;;;5037150;28;20029;-73
2022/01/18 02:47:19;;;;;;;1.88;1.58;;;20.90;57.60;;;;;;5052345;28;20009;-73
2022/01/18 02:49:45;;;;;;;1.52;1.42;;;20.80;57.60;;;;;;5052911;28;20021;-73
2022/01/18 02:52:10;;;;;;;1.50;1.40;;;20.90;57.60;;;;;;5052660;28;20043;-73
2022/01/18 02:54:36;;;;;;;1.67;1.58;;;20.80;57.50;;;;;;5035957;28;20476;-73
2022/01/18 02:57:04;;;;;;;1.88;1.60;;;20.90;57.60;;;;;;5052526;28;20032;-73
2022/01/18 03:04:45;;;;;;;1.65;1.55;;;20.80;57.50;;;;;;5052854;28;20171;-74
2022/01/18 03:07:11;;;;;;;1.80;1.70;;;20.90;57.60;;;;;;5052336;28;20021;-74
2022/01/18 03:09:37;;;;;;;2.63;1.52;;;20.80;57.50;;;;;;5019258;28;20434;-74
2022/01/18 03:12:03;;;;;;;1.75;1.60;;;20.80;57.50;;;;;;5052372;28;20099;-74
2022/01/18 03:14:29;;;;;;;3.17;1.60;;;20.80;57.50;;;;;;5052022;28;20388;-74
2022/01/18 03:16:54;;;;;;;1.65;1.55;;;20.80;57.50;;;;;;5051900;28;20029;-74
2022/01/18 03:19:20;;;;;;;1.67;1.50;;;20.80;57.50;;;;;;5052049;28;20109;-74
2022/01/18 03:21:46;;;;;;;1.83;1.60;;;20.80;57.50;;;;;;5032422;28;20112;-74
2022/01/18 03:24:31;;;;;;;1.50;1.40;;;20.80;57.50;;;;;;5032063;28;20028;-74
2022/01/18 03:29:41;;;;;;;1.70;1.60;;;20.80;57.50;;;;;;5032377;28;20033;-74
2022/01/18 03:32:07;;;;;;;1.60;1.50;;;20.80;57.60;;;;;;5032808;28;20017;-74
2022/01/18 03:34:33;;;;;;;2.10;1.50;;;20.80;57.50;;;;;;5032093;28;20096;-74
2022/01/18 03:36:59;;;;;;;2.17;1.35;;;20.80;57.50;;;;;;5032060;28;20078;-74
2022/01/18 03:39:25;;;;;;;2.13;1.58;;;20.80;57.60;;;;;;5031899;28;20033;-74
2022/01/18 03:42:11;;;;;;;1.50;1.40;;;20.80;57.50;;;;;;5033090;28;20018;-74
2022/01/18 03:44:37;;;;;;;1.50;1.40;;;20.80;57.50;;;;;;5031597;28;20032;-74
2022/01/18 03:47:03;;;;;;;2.80;1.80;;;20.80;57.50;;;;;;5032166;28;20096;-74
2022/01/18 03:49:30;;;;;;;1.90;1.60;;;20.80;57.50;;;;;;5031545;28;20039;-74
2022/01/18 03:51:55;;;;;;;1.48;1.38;;;20.80;57.50;;;;;;5031812;28;20025;-74
2022/01/18 03:54:23;;;;;;;1.55;1.45;;;20.80;57.50;;;;;;5032683;28;20036;-74
2022/01/18 03:56:49;;;;;;;1.50;1.40;;;20.80;57.50;;;;;;5031481;28;20104;-74
2022/01/18 03:59:15;;;;;;;1.55;1.45;;;20.80;57.50;;;;;;5032351;28;20467;-74
2022/01/18 04:01:40;;;;;;;1.60;1.50;;;20.80;57.50;;;;;;5031413;28;20492;-74
2022/01/18 04:04:06;;;;;;;1.60;1.50;;;20.80;57.50;;;;;;5031239;28;20037;-74
2022/01/18 04:06:31;;;;;;;1.40;1.30;;;20.70;57.50;;;;;;5031306;28;20047;-74
2022/01/18 04:08:57;;;;;;;1.40;1.30;;;20.80;57.60;;;;;;5031448;28;20029;-74
2022/01/18 04:11:23;;;;;;;1.48;1.38;;;20.80;57.50;;;;;;5032453;28;20021;-74
2022/01/18 04:13:48;;;;;;;1.33;1.23;;;20.80;57.50;;;;;;5030845;28;20033;-74
2022/01/18 04:16:15;;;;;;;1.40;1.30;;;20.70;57.50;;;;;;5031423;28;20487;-74
2022/01/18 04:29:09;;;;;;;1.25;1.20;;;20.70;57.50;;;;;;5052125;28;20033;-74
2022/01/18 04:31:35;;;;;;;1.50;1.40;;;20.70;57.50;;;;;;5018621;28;20050;-74
2022/01/18 04:34:01;;;;;;;1.75;1.40;;;20.70;57.50;;;;;;5034535;28;20119;-74
2022/01/18 04:36:28;;;;;;;1.48;1.38;;;20.70;57.50;;;;;;5052117;28;20028;-74
2022/01/18 04:38:53;;;;;;;1.40;1.30;;;20.70;57.50;;;;;;5034391;28;20052;-74
2022/01/18 04:41:25;;;;;;;1.73;1.63;;;20.70;57.50;;;;;;5050997;28;20494;-74
2022/01/18 04:49:11;;;;;;;2.28;1.10;;;20.70;57.50;;;;;;5037593;28;20036;-73
2022/01/18 04:51:37;;;;;;;1.30;1.20;;;20.80;57.60;;;;;;5051998;28;20025;-73
2022/01/18 04:54:05;;;;;;;1.40;1.30;;;20.70;57.50;;;;;;5050868;28;20025;-74
2022/01/18 04:58:59;;;;;;;1.50;1.40;;;20.70;57.50;;;;;;5053608;28;20391;-74
2022/01/18 05:01:25;;;;;;;1.75;1.40;;;20.70;57.50;;;;;;5054739;28;20507;-74
2022/01/18 05:03:51;;;;;;;2.03;1.30;;;20.70;57.50;;;;;;5054570;28;20399;-74
2022/01/18 05:06:18;;;;;;;1.40;1.30;;;20.70;57.50;;;;;;5055826;28;20025;-74
2022/01/18 05:08:44;;;;;;;1.20;1.10;;;20.70;57.50;;;;;;5054561;28;20100;-74
2022/01/18 05:11:13;;;;;;;1.52;1.33;;;20.70;57.50;;;;;;5021591;28;20147;-74
2022/01/18 05:21:31;;;;;;;1.35;1.27;;;20.70;57.50;;;;;;5051546;28;20035;-74
2022/01/18 05:23:57;;;;;;;1.73;1.40;;;20.70;57.50;;;;;;5055400;28;20025;-74
2022/01/18 05:26:23;;;;;;;1.40;1.30;;;20.70;57.50;;;;;;5037437;28;20043;-74
2022/01/18 05:28:49;;;;;;;1.30;1.20;;;20.70;57.50;;;;;;5055279;28;20073;-74
2022/01/18 05:31:15;;;;;;;1.40;1.30;;;20.70;57.50;;;;;;5037908;28;20057;-74
2022/01/18 05:33:42;;;;;;;1.30;1.20;;;20.70;57.50;;;;;;5037227;28;20406;-74
2022/01/18 05:36:08;;;;;;;1.30;1.20;;;20.70;57.50;;;;;;5055470;28;20021;-74
2022/01/18 05:38:36;;;;;;;1.10;1.00;;;20.70;57.50;;;;;;5035640;28;20529;-74
2022/01/18 05:41:06;;;;;;;1.35;1.10;;;20.70;57.50;;;;;;5035598;28;20027;-74
2022/01/18 05:43:31;;;;;;;1.45;1.20;;;20.70;57.50;;;;;;5035246;28;20052;-74
2022/01/18 05:45:57;;;;;;;1.05;1.05;;;20.70;57.50;;;;;;5052391;28;20098;-74
2022/01/18 05:48:23;;;;;;;1.58;1.48;;;20.70;57.50;;;;;;5052715;28;20035;-74
2022/01/18 05:50:49;;;;;;;1.27;1.17;;;20.70;57.50;;;;;;5053500;28;20013;-73
2022/01/18 05:53:14;;;;;;;1.13;1.05;;;20.70;57.50;;;;;;5035814;28;20013;-73
2022/01/18 05:55:40;;;;;;;1.38;1.27;;;20.70;57.50;;;;;;5035016;28;20017;-71
2022/01/18 05:58:06;;;;;;;1.85;1.75;;;20.70;57.40;;;;;;5048417;28;20017;-70
2022/01/18 06:00:31;;;;;;;2.00;1.80;;;20.70;57.10;;;;;;5038464;28;20403;-71
2022/01/18 06:08:08;;;;;;;2.17;2.00;;;20.60;56.80;;;;;;5024656;28;20031;-71
2022/01/18 06:10:33;;;;;;;3.10;2.65;;;20.60;56.90;;;;;;5052460;28;20025;-71
2022/01/18 06:13:02;;;;;;;3.25;3.05;;;20.50;56.80;;;;;;5032417;28;20362;-71
2022/01/18 06:15:29;;;;;;;3.42;3.13;;;20.50;56.80;;;;;;5033407;28;20427;-71
2022/01/18 06:17:55;;;;;;;2.70;2.50;;;20.50;56.70;;;;;;5033361;28;20116;-71
2022/01/18 06:20:21;;;;;;;2.80;2.60;;;20.40;56.60;;;;;;5042529;28;20097;-71
2022/01/18 06:22:46;;;;;;;3.35;3.05;;;20.50;56.70;;;;;;5052982;28;20056;-71
2022/01/18 06:25:12;;;;;;;3.05;2.78;;;20.50;56.60;;;;;;5053158;28;20029;-71
2022/01/18 06:27:38;;;;;;;2.83;2.63;;;20.40;56.60;;;;;;5048315;28;20053;-71
2022/01/18 06:30:07;;;;;;;3.05;2.85;;;20.40;56.60;;;;;;5029252;28;20033;-71
2022/01/18 06:32:32;;;;;;;2.60;2.40;;;20.40;56.50;;;;;;5037756;28;20071;-71
2022/01/18 06:34:58;;;;;;;2.72;2.53;;;20.40;56.50;;;;;;5050347;28;20030;-71
2022/01/18 06:37:23;;;;;;;3.20;2.90;;;20.40;56.50;;;;;;5039624;28;20483;-71
2022/01/18 06:39:49;;;;;;;3.03;2.65;;;20.40;56.50;;;;;;5042000;28;20028;-71
2022/01/18 06:42:15;;;;;;;2.80;2.58;;;20.40;56.40;;;;;;5048093;28;20155;-71
2022/01/18 06:44:40;;;;;;;2.50;2.30;;;20.40;56.40;;;;;;5035319;28;20028;-71
2022/01/18 06:47:06;;;;;;;3.13;2.83;;;20.40;56.40;;;;;;5016435;28;20103;-71
2022/01/18 06:49:32;;;;;;;2.47;2.28;;;20.40;56.40;;;;;;5036402;28;20018;-71
2022/01/18 06:51:57;;;;;;;2.65;2.45;;;20.30;56.30;;;;;;5041781;28;20026;-71
2022/01/18 06:54:23;;;;;;;3.00;2.65;;;20.40;56.40;;;;;;5045158;28;20080;-71
2022/01/18 06:56:50;;;;;;;2.60;2.40;;;20.30;56.20;;;;;;5043784;28;20487;-71
2022/01/18 06:59:16;;;;;;;2.60;2.40;;;20.40;56.30;;;;;;5040503;28;20055;-71
2022/01/18 07:01:42;;;;;;;2.95;2.60;;;20.40;56.30;;;;;;5049226;28;20025;-71
2022/01/18 07:04:07;;;;;;;2.67;2.28;;;20.30;56.20;;;;;;5020258;28;20025;-72
2022/01/18 07:06:33;;;;;;;3.30;2.45;;;20.30;56.20;;;;;;5028385;28;20076;-72
2022/01/18 07:09:00;;;;;;;8.45;3.70;;;20.30;56.20;;;;;;5026826;28;20468;-73
2022/01/18 07:11:25;;;;;;;10.52;3.85;;;20.30;56.20;;;;;;5037810;28;20384;-73
2022/01/18 07:13:51;;;;;;;9.57;3.42;;;20.40;56.30;;;;;;5039242;28;20029;-74
2022/01/18 07:16:16;;;;;;;7.93;4.03;;;20.40;56.30;;;;;;5015741;28;20029;-72
2022/01/18 07:18:42;;;;;;;8.40;3.80;;;20.40;56.30;;;;;;5031559;28;20030;-72
2022/01/18 07:21:09;;;;;;;9.20;3.78;;;20.40;56.30;;;;;;5045557;28;20387;-72
2022/01/18 07:23:38;;;;;;;8.27;3.65;;;20.30;56.20;;;;;;5034034;28;20025;-72
2022/01/18 07:26:04;;;;;;;8.13;3.55;;;20.40;56.20;;;;;;5052295;28;20100;-72
2022/01/18 07:28:29;;;;;;;8.45;3.28;;;20.30;56.20;;;;;;5034322;28;20128;-72
2022/01/18 07:30:55;;;;;;;6.63;3.50;;;20.40;56.20;;;;;;5034289;28;20040;-72
2022/01/18 07:33:21;;;;;;;11.50;3.50;;;20.40;56.20;;;;;;5051297;28;20483;-72
2022/01/18 07:35:46;;;;;;;4.97;3.30;;;20.40;56.20;;;;;;5051785;28;20048;-72
2022/01/18 07:38:15;;;;;;;6.57;3.10;;;20.40;56.10;;;;;;5042455;28;20017;-72
2022/01/18 07:40:41;;;;;;;5.72;3.17;;;20.40;56.20;;;;;;5047077;28;20487;-72
2022/01/18 07:43:07;;;;;;;6.93;3.20;;;20.40;56.10;;;;;;5033802;28;20562;-72
2022/01/18 07:45:32;;;;;;;7.10;3.58;;;20.30;56.10;;;;;;5034227;28;20053;-72
2022/01/18 07:47:58;;;;;;;7.45;3.55;;;20.40;56.10;;;;;;5052757;28;20025;-72
2022/01/18 07:50:24;;;;;;;6.78;3.13;;;20.40;56.10;;;;;;5051725;28;20078;-72
2022/01/18 07:52:50;;;;;;;6.43;3.72;;;20.30;56.00;;;;;;5034525;28;20502;-72
2022/01/18 07:55:15;;;;;;;6.57;3.22;;;20.30;56.00;;;;;;5040531;28;20033;-72
2022/01/18 07:57:42;;;;;;;7.25;3.10;;;20.30;56.00;;;;;;5031537;28;20116;-72
2022/01/18 08:00:13;;;;;;;6.45;3.20;;;20.30;56.00;;;;;;5031522;28;20052;-72
2022/01/18 08:02:39;;;;;;;5.88;3.20;;;20.30;55.90;;;;;;5032435;28;20020;-72
2022/01/18 08:05:05;;;;;;;4.05;2.95;;;20.30;55.90;;;;;;5032633;28;20033;-72
2022/01/18 08:07:31;;;;;;;6.57;3.63;;;20.30;55.90;;;;;;5031148;28;20025;-72
2022/01/18 08:09:57;;;;;;;6.88;2.90;;;20.30;55.90;;;;;;5031393;28;20028;-72
2022/01/18 08:12:25;;;;;;;7.47;3.67;;;20.30;55.80;;;;;;5045454;28;20031;-72
2022/01/18 08:14:54;;;;;;;7.35;3.40;;;20.30;55.90;;;;;;5031375;28;20021;-72
2022/01/18 08:17:22;;;;;;;7.78;3.03;;;20.30;55.80;;;;;;5031350;28;20104;-72
2022/01/18 08:19:47;;;;;;;5.25;3.15;;;20.30;55.80;;;;;;5031364;28;20029;-72
2022/01/18 08:22:14;;;;;;;6.03;3.28;;;20.30;55.80;;;;;;5030928;28;20013;-72
2022/01/18 08:24:40;;;;;;;5.25;3.13;;;20.30;55.80;;;;;;5032116;28;20025;-72
2022/01/18 08:27:05;;;;;;;4.60;2.78;;;20.30;55.70;;;;;;5030986;28;20530;-72
2022/01/18 08:29:31;;;;;;;7.97;3.28;;;20.30;55.70;;;;;;5032420;28;20508;-72
2022/01/18 08:31:57;;;;;;;6.90;2.90;;;20.30;55.70;;;;;;5030977;28;20021;-72
2022/01/18 08:34:22;;;;;;;4.68;2.72;;;20.30;55.70;;;;;;5030797;28;20029;-72
2022/01/18 08:36:50;;;;;;;4.47;2.67;;;20.30;55.60;;;;;;5030584;28;20025;-72
2022/01/18 08:39:15;;;;;;;6.07;3.60;;;20.30;55.70;;;;;;5032126;28;20040;-72
2022/01/18 08:41:41;;;;;;;5.07;3.13;;;20.30;55.70;;;;;;5031179;28;20021;-72
2022/01/18 08:44:07;;;;;;;5.50;2.80;;;20.30;55.60;;;;;;5031954;28;20035;-72
2022/01/18 08:46:32;;;;;;;4.38;2.78;;;20.30;55.60;;;;;;5044077;28;20021;-72
2022/01/18 08:48:58;;;;;;;3.30;2.72;;;20.30;55.60;;;;;;5050847;28;20021;-72
2022/01/18 08:51:24;;;;;;;4.50;2.83;;;20.30;55.60;;;;;;5050776;28;20048;-72
2022/01/18 08:53:50;;;;;;;5.07;2.72;;;20.30;55.60;;;;;;5050754;28;20529;-72
2022/01/18 08:56:19;;;;;;;6.40;3.17;;;20.30;55.60;;;;;;5050677;28;20029;-72
2022/01/18 08:58:45;;;;;;;5.25;3.33;;;20.30;55.60;;;;;;5034423;28;20029;-72
2022/01/18 09:01:11;;;;;;;5.07;2.70;;;20.30;55.60;;;;;;5034232;28;20079;-72
2022/01/18 09:03:37;;;;;;;4.30;3.03;;;20.20;55.60;;;;;;5051453;28;20559;-72
2022/01/18 09:06:04;;;;;;;4.03;2.70;;;20.20;55.50;;;;;;5050480;28;20021;-72
2022/01/18 09:08:30;;;;;;;3.78;2.63;;;20.30;55.60;;;;;;5034556;28;20021;-72
2022/01/18 09:10:56;;;;;;;3.80;2.90;;;20.30;55.60;;;;;;5050557;28;20024;-72
2022/01/18 09:13:22;;;;;;;5.30;3.25;;;20.20;55.40;;;;;;5050671;28;20052;-72
2022/01/18 09:15:48;;;;;;;3.28;2.30;;;20.30;55.50;;;;;;5051895;28;20060;-72
2022/01/18 09:18:14;;;;;;;4.75;3.22;;;20.30;55.40;;;;;;5050304;28;20053;-72
2022/01/18 09:20:39;;;;;;;6.00;2.97;;;20.20;55.30;;;;;;5050506;28;20507;-72
2022/01/18 09:23:05;;;;;;;3.58;2.67;;;20.30;55.30;;;;;;5050232;28;20239;-72
2022/01/18 09:25:30;;;;;;;4.00;2.78;;;20.30;55.30;;;;;;5033990;28;20021;-72
2022/01/18 09:27:56;;;;;;;3.35;2.60;;;20.30;55.30;;;;;;5017236;28;20049;-72
2022/01/18 09:30:25;;;;;;;3.70;2.80;;;20.30;55.30;;;;;;5033855;28;20021;-72
2022/01/18 09:32:50;;;;;;;3.90;2.55;;;20.20;55.20;;;;;;5049976;28;20028;-72
2022/01/18 09:35:16;;;;;;;3.20;2.50;;;20.30;55.30;;;;;;5050416;28;20025;-72
2022/01/18 09:37:42;;;;;;;3.75;2.92;;;20.30;55.20;;;;;;5050567;28;20495;-72
2022/01/18 09:40:09;;;;;;;4.07;2.47;;;20.30;55.20;;;;;;5014936;28;20507;-72
2022/01/18 09:42:37;;;;;;;4.75;2.65;;;20.30;56.20;;;;;;5030617;28;20040;-72
2022/01/18 09:45:11;;;;;;;3.30;2.78;;;20.20;55.10;;;;;;5032164;28;20022;-72
2022/01/18 09:47:37;;;;;;;3.42;2.30;;;20.30;55.10;;;;;;5037385;28;20025;-72
2022/01/18 09:50:04;;;;;;;4.93;2.50;;;20.30;55.10;;;;;;5037283;28;20010;-72
2022/01/18 09:52:30;;;;;;;3.13;2.45;;;20.30;55.10;;;;;;5053896;28;20480;-72
2022/01/18 09:54:55;;;;;;;3.15;2.70;;;20.30;55.10;;;;;;5054833;28;20075;-72
2022/01/18 09:57:21;;;;;;;3.22;2.92;;;20.30;55.10;;;;;;5054954;28;20017;-72
2022/01/18 09:59:47;;;;;;;2.78;2.50;;;20.30;55.10;;;;;;5053794;28;20052;-72
2022/01/18 10:02:12;;;;;;;2.67;2.47;;;20.20;55.00;;;;;;5054400;28;20036;-72
2022/01/18 10:04:45;;;;;;;3.35;2.60;;;20.20;54.90;;;;;;5053491;28;20032;-72
2022/01/18 10:07:11;;;;;;;3.75;2.70;;;20.20;54.90;;;;;;5054807;28;20390;-72
2022/01/18 10:09:37;;;;;;;4.13;3.10;;;20.20;55.00;;;;;;5054640;28;20021;-72
2022/01/18 10:12:08;;;;;;;2.88;2.53;;;20.20;55.00;;;;;;5036731;28;20025;-72
2022/01/18 10:14:35;;;;;;;5.32;2.65;;;20.20;54.90;;;;;;5053551;28;20048;-72
2022/01/18 10:17:00;;;;;;;3.47;2.60;;;20.20;54.90;;;;;;5054329;28;20154;-72
2022/01/18 10:19:36;;;;;;;3.42;2.75;;;20.20;54.90;;;;;;5053479;28;20530;-72
2022/01/18 10:22:13;;;;;;;2.92;2.63;;;20.20;54.90;;;;;;5053117;28;20025;-72
2022/01/18 10:24:38;;;;;;;3.25;2.50;;;20.20;54.80;;;;;;5053260;28;20021;-72
2022/01/18 10:27:04;;;;;;;3.03;2.72;;;20.20;54.80;;;;;;5052968;28;20095;-72
2022/01/18 10:29:50;;;;;;;3.08;2.72;;;20.30;54.90;;;;;;5036560;28;20104;-72
2022/01/18 10:32:25;;;;;;;2.42;2.22;;;20.30;54.60;;;;;;5052304;28;20490;-72
2022/01/18 10:37:19;;;;;;;2.92;2.42;;;20.20;54.80;;;;;;5036553;28;20025;-72
2022/01/18 10:39:52;;;;;;;3.10;2.60;;;20.20;54.80;;;;;;5037155;28;20484;-72
2022/01/18 10:42:19;;;;;;;2.80;2.33;;;20.20;54.70;;;;;;5032950;28;20492;-72
2022/01/18 10:44:46;;;;;;;2.75;2.28;;;20.20;54.70;;;;;;5034071;28;20491;-72
2022/01/18 10:47:12;;;;;;;2.90;2.60;;;20.20;54.80;;;;;;5050896;28;20466;-72
2022/01/18 10:49:40;;;;;;;3.60;2.63;;;20.20;54.70;;;;;;5052759;28;20092;-72
2022/01/18 10:52:10;;;;;;;2.70;2.50;;;20.20;54.70;;;;;;5036419;28;20025;-72
2022/01/18 10:54:43;;;;;;;2.78;2.20;;;20.20;54.70;;;;;;5054038;28;20025;-72
2022/01/18 10:57:11;;;;;;;2.70;2.50;;;20.30;54.60;;;;;;5052377;28;20365;-72
2022/01/18 10:59:38;;;;;;;2.60;2.40;;;20.20;54.60;;;;;;5035991;28;20025;-72
2022/01/18 11:02:03;;;;;;;2.75;2.42;;;20.20;54.60;;;;;;5036132;28;20128;-72
2022/01/18 11:04:29;;;;;;;2.97;2.30;;;20.20;54.60;;;;;;5053575;28;20477;-72
2022/01/18 11:06:56;;;;;;;2.95;2.20;;;20.20;54.60;;;;;;5053711;28;20548;-72
2022/01/18 11:09:22;;;;;;;2.85;2.55;;;20.20;54.60;;;;;;5052202;28;20017;-72
2022/01/18 11:11:48;;;;;;;2.53;2.33;;;20.20;54.60;;;;;;5053708;28;20032;-72
2022/01/18 11:14:20;;;;;;;2.30;2.10;;;20.20;54.50;;;;;;5052962;28;20025;-72
2022/01/18 11:16:50;;;;;;;2.50;2.13;;;20.20;54.50;;;;;;5053567;28;20052;-72
2022/01/18 11:19:30;;;;;;;2.40;2.13;;;20.20;55.50;;;;;;5053348;28;20738;-72
2022/01/18 11:22:02;;;;;;;2.60;2.40;;;20.20;54.50;;;;;;5052448;28;20032;-72
2022/01/18 11:24:28;;;;;;;2.33;2.13;;;20.20;54.50;;;;;;5052033;28;20028;-72
2022/01/18 11:26:54;;;;;;;2.80;2.50;;;20.20;54.50;;;;;;5051972;28;20032;-72
2022/01/18 11:29:21;;;;;;;2.55;2.33;;;20.20;54.50;;;;;;5035115;28;20025;-72
2022/01/18 11:31:50;;;;;;;2.58;2.38;;;20.20;54.50;;;;;;5053364;28;20403;-72
2022/01/18 11:34:42;;;;;;;2.30;2.10;;;20.20;54.40;;;;;;5052820;28;20115;-72
2022/01/18 11:37:45;;;;;;;2.42;2.22;;;20.30;54.30;;;;;;5053097;28;20498;-72
2022/01/18 11:40:12;;;;;;;2.38;2.17;;;20.20;54.20;;;;;;5033487;28;20467;-72
2022/01/18 11:42:49;;;;;;;2.13;1.92;;;20.20;54.40;;;;;;5031895;28;20025;-72
2022/01/18 11:45:44;;;;;;;2.10;1.98;;;20.20;54.40;;;;;;5033797;28;20028;-72
2022/01/18 11:48:18;;;;;;;2.53;2.33;;;20.20;54.10;;;;;;5052461;28;20036;-72
2022/01/18 11:51:05;;;;;;;2.20;2.00;;;20.20;54.40;;;;;;5051755;28;20555;-72
2022/01/18 11:53:55;;;;;;;2.67;2.20;;;20.20;54.30;;;;;;5052761;28;20029;-72
2022/01/18 11:56:35;;;;;;;2.85;1.95;;;20.20;54.20;;;;;;5051436;28;20451;-72
2022/01/18 11:59:20;;;;;;;2.33;2.13;;;20.20;54.20;;;;;;5052410;28;20029;-72
2022/01/18 12:01:59;;;;;;;2.42;1.90;;;20.20;54.10;;;;;;5035596;28;20036;-72
2022/01/18 12:04:48;;;;;;;2.35;2.00;;;20.20;54.30;;;;;;5035536;28;20025;-72
2022/01/18 12:07:38;;;;;;;1.92;1.73;;;20.20;54.10;;;;;;5051868;28;20028;-72
2022/01/18 12:10:13;;;;;;;2.10;2.00;;;20.20;54.10;;;;;;5052535;28;20063;-72
2022/01/18 12:12:44;;;;;;;1.90;1.80;;;20.20;54.30;;;;;;5051010;28;20490;-72
2022/01/18 12:15:16;;;;;;;2.20;2.00;;;20.20;54.20;;;;;;5052545;28;20055;-72
2022/01/18 12:17:52;;;;;;;2.10;1.88;;;20.20;54.20;;;;;;5052624;28;20095;-72
2022/01/18 12:20:42;;;;;;;2.47;2.28;;;20.20;54.10;;;;;;5051047;28;20021;-72
2022/01/18 12:23:27;;;;;;;2.38;1.95;;;20.20;54.00;;;;;;5052158;28;20025;-72
2022/01/18 12:34:30;;;;;;;2.08;1.90;;;20.20;54.00;;;;;;5052089;28;20025;-72
2022/01/18 12:37:05;;;;;;;2.22;2.00;;;20.20;54.00;;;;;;5052206;28;20534;-72
2022/01/18 12:39:51;;;;;;;2.10;2.00;;;20.20;54.20;;;;;;5037886;28;20038;-72
2022/01/18 12:45:09;;;;;;;1.70;1.60;;;20.20;54.00;;;;;;5031217;28;20044;-72
2022/01/18 12:47:36;;;;;;;1.80;1.70;;;20.20;54.00;;;;;;5030886;28;20022;-72
2022/01/18 12:50:07;;;;;;;1.80;1.70;;;20.20;54.10;;;;;;5014826;28;20017;-72
2022/01/18 12:52:48;;;;;;;1.98;1.88;;;20.20;54.00;;;;;;5032126;28;20506;-72
2022/01/18 12:55:40;;;;;;;1.80;1.70;;;20.20;53.80;;;;;;5032024;28;20369;-72
2022/01/18 12:58:06;;;;;;;1.83;1.67;;;20.20;53.90;;;;;;5032106;28;20021;-72
2022/01/18 13:00:36;;;;;;;1.98;1.88;;;20.20;54.10;;;;;;5031882;28;20021;-72
2022/01/18 13:03:02;;;;;;;2.30;2.10;;;20.20;54.00;;;;;;5032035;28;20024;-72
2022/01/18 13:05:39;;;;;;;1.67;1.58;;;20.20;54.00;;;;;;5030748;28;20021;-72
2022/01/18 13:08:05;;;;;;;1.80;1.70;;;20.20;53.80;;;;;;5014784;28;20455;-72
2022/01/18 13:10:44;;;;;;;1.58;1.48;;;20.20;53.90;;;;;;5030449;28;20026;-72
2022/01/18 13:13:13;;;;;;;1.83;1.70;;;20.20;53.80;;;;;;5015724;28;20373;-72
2022/01/18 13:15:52;;;;;;;1.83;1.73;;;20.20;53.90;;;;;;5014633;28;20033;-72
2022/01/18 13:24:03;;;;;;;1.83;1.60;;;20.20;53.90;;;;;;5034558;28;20120;-72
2022/01/18 13:26:35;;;;;;;1.83;1.70;;;20.20;53.80;;;;;;5034100;28;20026;-72
2022/01/18 13:29:24;;;;;;;1.90;1.75;;;20.20;54.80;;;;;;5034323;28;20121;-72
2022/01/18 13:32:13;;;;;;;1.85;1.75;;;20.20;53.70;;;;;;5035484;28;20029;-72
2022/01/18 13:34:41;;;;;;;1.75;1.65;;;20.20;53.70;;;;;;5034334;28;20021;-72
2022/01/18 13:37:09;;;;;;;1.92;1.67;;;20.20;53.80;;;;;;5034265;28;20037;-72
2022/01/18 13:39:44;;;;;;;1.60;1.50;;;20.20;53.80;;;;;;5033720;28;20047;-72
2022/01/18 13:42:10;;;;;;;1.88;1.77;;;20.20;53.80;;;;;;5034088;28;20037;-72
2022/01/18 13:44:36;;;;;;;1.80;1.70;;;20.20;53.70;;;;;;5033870;28;20028;-72
2022/01/18 13:47:15;;;;;;;1.80;1.70;;;20.20;53.70;;;;;;5051186;28;20021;-72
2022/01/18 13:49:41;;;;;;;1.90;1.80;;;20.30;53.60;;;;;;5054026;28;20105;-72
2022/01/18 13:52:14;;;;;;;1.90;1.80;;;20.20;53.80;;;;;;5053785;28;20455;-72
2022/01/18 13:54:50;;;;;;;1.65;1.55;;;20.20;53.70;;;;;;5053516;28;20104;-72
2022/01/18 13:57:17;;;;;;;2.00;1.90;;;20.20;53.60;;;;;;5037527;28;20414;-72
2022/01/18 13:59:45;;;;;;;1.75;1.65;;;20.20;53.70;;;;;;5053628;28;20017;-72
2022/01/18 14:02:12;;;;;;;2.10;1.98;;;20.20;53.60;;;;;;5037424;28;20029;-72
2022/01/18 14:04:38;;;;;;;2.22;1.92;;;20.20;53.60;;;;;;5036856;28;20403;-72
2022/01/18 14:07:04;;;;;;;1.90;1.80;;;20.20;53.70;;;;;;5054921;28;20029;-72
2022/01/18 14:09:30;;;;;;;1.60;1.50;;;20.30;53.60;;;;;;5053132;28;20048;-72
2022/01/18 14:11:56;;;;;;;2.03;1.88;;;20.30;53.60;;;;;;5036796;28;20057;-72
2022/01/18 14:14:25;;;;;;;2.00;1.90;;;20.30;53.60;;;;;;5053535;28;20100;-72
2022/01/18 14:16:52;;;;;;;2.08;1.95;;;20.30;53.60;;;;;;5054618;28;20057;-72
2022/01/18 14:19:34;;;;;;;2.25;2.05;;;20.30;53.60;;;;;;5053426;28;20033;-72
2022/01/18 14:22:11;;;;;;;1.73;1.63;;;20.30;53.50;;;;;;5054568;28;20072;-72
2022/01/18 14:24:42;;;;;;;1.77;1.67;;;20.30;53.40;;;;;;5052876;28;20091;-72
2022/01/18 14:27:09;;;;;;;1.80;1.70;;;20.20;53.50;;;;;;5020229;28;20052;-72
2022/01/18 14:29:41;;;;;;;1.83;1.73;;;20.30;53.50;;;;;;5053188;28;20128;-72
2022/01/18 14:32:20;;;;;;;1.93;1.83;;;20.30;53.40;;;;;;5053727;28;20025;-72
2022/01/18 14:34:51;;;;;;;1.90;1.80;;;20.30;53.50;;;;;;5054262;28;20286;-72